This is the latest recevied weather packets stored in our database for station/object NK7E. If no packets are shown the sender has not sent any weather packets the latest 1 day(s).
| Time | Temp. | Humidity | Pressure | Rain* | Wind** | Luminosity | Snow |
|---|---|---|---|---|---|---|---|
| 1778076616 | 15° C | 58% | 1016 hPa | 0 mm | - | 279 W/m² | - |
| 1778075416 | 13.89° C | 62% | 1015.9 hPa | 0 mm | - | 208 W/m² | - |
| 1778074816 | 13.33° C | 65% | 1015.9 hPa | 0 mm | - | 175 W/m² | - |
| 1778073616 | 11.67° C | 72% | 1015.6 hPa | 0 mm | - | 108 W/m² | - |
| 1778073016 | 11.11° C | 74% | 1015.6 hPa | 0 mm | - | 70 W/m² | - |
| 1778071816 | 10.56° C | 74% | 1015.5 hPa | 0 mm | - | 12 W/m² | - |
| 1778071216 | 11.11° C | 74% | 1015.3 hPa | 0 mm | - | 7 W/m² | - |
| 1778070616 | 11.11° C | 73% | 1015.2 hPa | 0 mm | - | 0 W/m² | - |
| 1778069416 | 11.67° C | 70% | 1015.1 hPa | 0 mm | - | 0 W/m² | - |
| 1778065816 | 12.22° C | 65% | 1014.8 hPa | 0 mm | - | 0 W/m² | - |
| 1778061616 | 12.78° C | 59% | 1014.2 hPa | 0 mm | - | 0 W/m² | - |
| 1778056816 | 15.56° C | 46% | 1014 hPa | 0 mm | - | 0 W/m² | - |
| 1778053816 | 15.56° C | 43% | 1014.2 hPa | 0 mm | - | 0 W/m² | - |
| 1778050216 | 16.67° C | 41% | 1014.1 hPa | 0 mm | - | 0 W/m² | - |
| 1778049616 | 16.67° C | 41% | 1014 hPa | 0 mm | - | 0 W/m² | - |
| 1778049016 | 16.67° C | 41% | 1014 hPa | 0 mm | - | 0 W/m² | - |
| 1778048416 | 16.67° C | 42% | 1014 hPa | 0 mm | - | 0 W/m² | - |
| 1778047816 | 16.67° C | 43% | 1014.1 hPa | 0 mm | - | 0 W/m² | - |
| 1778047216 | 17.22° C | 41% | 1014.1 hPa | 0 mm | - | 0 W/m² | - |
| 1778046616 | 16.67° C | 42% | 1014.1 hPa | 0 mm | - | 0 W/m² | - |
| 1778046016 | 16.67° C | 43% | 1013.9 hPa | 0 mm | - | 0 W/m² | - |
| 1778045416 | 16.67° C | 44% | 1013.9 hPa | 0 mm | - | 0 W/m² | - |
| 1778044816 | 16.67° C | 44% | 1013.8 hPa | 0 mm | - | 0 W/m² | - |
| 1778044216 | 17.22° C | 44% | 1013.7 hPa | 0 mm | - | 0 W/m² | - |
| 1778043616 | 17.22° C | 44% | 1013.6 hPa | 0 mm | - | 0 W/m² | - |
* Rain latest hour (hover to see other rain measurements)
** Current wind speed in m/s (hover to see current wind gust speed)